createdAt,value
2023-04-26T00:02:34.578Z,9.23
2023-04-26T00:05:27.233Z,9.85
2023-04-26T00:08:16.605Z,10.82
2023-04-26T00:11:06.117Z,13.07
2023-04-26T00:13:55.448Z,9.13
2023-04-26T00:16:44.854Z,9.80
2023-04-26T00:19:34.141Z,7.57
2023-04-26T00:22:25.189Z,10.43
2023-04-26T00:25:14.826Z,9.05
2023-04-26T00:28:04.152Z,8.02
2023-04-26T00:30:53.600Z,10.95
2023-04-26T00:33:42.901Z,8.20
2023-04-26T00:36:32.827Z,11.60
2023-04-26T00:39:23.572Z,8.88
2023-04-26T00:42:13.043Z,10.98
2023-04-26T00:45:02.443Z,7.88
2023-04-26T00:47:53.210Z,10.02
2023-04-26T00:50:42.744Z,13.30
2023-04-26T00:53:32.482Z,9.18
2023-04-26T00:56:24.316Z,7.43
2023-04-26T00:59:14.114Z,12.93
2023-04-26T01:02:04.693Z,10.05
2023-04-26T01:04:53.942Z,9.85
2023-04-26T01:07:43.237Z,9.32
2023-04-26T01:10:33.813Z,9.00
2023-04-26T01:13:24.616Z,9.77
2023-04-26T01:16:15.184Z,8.75
2023-04-26T01:19:11.021Z,7.97
2023-04-26T01:22:01.307Z,7.13
2023-04-26T01:24:54.360Z,10.73
2023-04-26T01:27:43.849Z,10.75
2023-04-26T01:30:34.094Z,8.90
2023-04-26T01:33:25.678Z,7.28
2023-04-26T01:36:14.881Z,8.57
2023-04-26T01:39:04.944Z,9.77
2023-04-26T01:41:55.692Z,9.15
2023-04-26T01:44:46.014Z,8.80
2023-04-26T01:47:35.367Z,9.30
2023-04-26T01:50:24.779Z,10.85
2023-04-26T01:53:14.161Z,9.98
2023-04-26T01:56:05.822Z,12.18
2023-04-26T01:58:57.524Z,19.15
2023-04-26T02:01:47.130Z,8.65
2023-04-26T02:04:36.945Z,10.10
2023-04-26T02:07:27.009Z,12.85
2023-04-26T02:10:18.791Z,11.95
2023-04-26T02:13:09.906Z,9.20
2023-04-26T02:16:00.858Z,11.32
2023-04-26T02:18:51.057Z,9.80
2023-04-26T02:21:55.852Z,7.82
2023-04-26T02:24:45.823Z,7.78
2023-04-26T02:27:35.193Z,9.68
2023-04-26T02:30:24.394Z,8.13
2023-04-26T02:33:15.355Z,9.50
2023-04-26T02:36:06.386Z,10.73
2023-04-26T02:38:55.972Z,8.10
2023-04-26T02:41:45.580Z,9.20
2023-04-26T02:44:35.053Z,6.88
2023-04-26T02:47:25.133Z,7.80
2023-04-26T02:50:16.223Z,9.68
2023-04-26T02:53:05.561Z,9.85
2023-04-26T02:55:55.996Z,10.45
2023-04-26T02:58:45.243Z,7.10
2023-04-26T03:01:34.574Z,8.63
2023-04-26T03:04:24.031Z,8.52
2023-04-26T03:07:14.699Z,6.85
2023-04-26T03:10:05.008Z,10.85
2023-04-26T03:12:54.650Z,12.20
2023-04-26T03:15:47.245Z,7.10
2023-04-26T03:18:37.630Z,7.70
2023-04-26T03:21:28.589Z,9.30
2023-04-26T03:24:20.143Z,8.90
2023-04-26T03:27:10.040Z,8.90
2023-04-26T03:29:59.760Z,7.45
2023-04-26T03:32:50.608Z,7.80
2023-04-26T03:35:40.017Z,6.32
2023-04-26T03:38:29.289Z,7.07
2023-04-26T03:41:20.432Z,10.63
2023-04-26T03:44:09.847Z,12.05
2023-04-26T03:46:59.389Z,7.68
2023-04-26T03:49:49.065Z,6.80
2023-04-26T03:52:38.596Z,10.07
2023-04-26T03:55:27.956Z,10.02
2023-04-26T03:58:19.423Z,12.35
2023-04-26T04:01:08.858Z,10.07
2023-04-26T04:03:58.298Z,9.40
2023-04-26T04:06:48.135Z,8.82
2023-04-26T04:09:37.707Z,9.65
2023-04-26T04:12:27.084Z,9.13
2023-04-26T04:15:18.963Z,6.78
2023-04-26T04:18:10.437Z,9.27
2023-04-26T04:21:00.398Z,10.82
2023-04-26T04:23:50.428Z,10.82
2023-04-26T04:26:40.372Z,6.60
2023-04-26T04:29:29.788Z,9.13
2023-04-26T04:32:21.159Z,10.68
2023-04-26T04:35:11.314Z,11.32
2023-04-26T04:38:00.592Z,10.18
2023-04-26T04:40:51.304Z,7.28
2023-04-26T04:43:41.840Z,8.90
2023-04-26T04:46:36.464Z,10.10
2023-04-26T04:49:27.420Z,11.60
2023-04-26T04:52:18.786Z,8.90
2023-04-26T04:55:09.170Z,8.75
2023-04-26T04:58:00.569Z,8.65
2023-04-26T05:00:54.427Z,9.65
2023-04-26T05:03:48.944Z,8.80
2023-04-26T05:06:39.774Z,14.10
2023-04-26T05:09:29.402Z,11.23
2023-04-26T05:12:18.751Z,13.95
2023-04-26T05:15:10.551Z,12.20
2023-04-26T05:18:01.306Z,7.90
2023-04-26T05:20:51.756Z,9.00
2023-04-26T05:23:43.618Z,13.07
2023-04-26T05:26:33.512Z,12.88
2023-04-26T05:29:42.655Z,9.35
2023-04-26T05:32:50.546Z,10.10
2023-04-26T05:36:18.859Z,11.23
2023-04-26T05:39:10.891Z,9.50
2023-04-26T05:42:03.776Z,11.53
2023-04-26T05:44:59.912Z,10.77
2023-04-26T05:47:51.552Z,10.38
2023-04-26T05:50:41.026Z,10.75
2023-04-26T05:53:31.507Z,13.98
2023-04-26T05:56:24.450Z,12.30
2023-04-26T06:02:04.913Z,18.52
2023-04-26T06:04:54.707Z,18.48
2023-04-26T06:07:44.984Z,10.45
2023-04-26T06:10:34.514Z,12.52
2023-04-26T06:13:25.462Z,13.15
2023-04-26T06:16:14.888Z,11.40
2023-04-26T06:19:04.774Z,12.45
2023-04-26T06:21:55.632Z,10.55
2023-04-26T06:24:45.173Z,14.55
2023-04-26T06:27:34.546Z,11.00
2023-04-26T06:30:25.390Z,11.98
2023-04-26T06:33:15.487Z,15.57
2023-04-26T06:36:05.268Z,13.25
2023-04-26T06:38:54.513Z,11.43
2023-04-26T06:41:43.892Z,17.65
2023-04-26T06:44:34.859Z,15.57
2023-04-26T06:47:28.874Z,14.63
2023-04-26T06:50:18.448Z,15.50
2023-04-26T06:53:07.803Z,17.48
2023-04-26T06:55:58.349Z,15.73
2023-04-26T06:59:01.651Z,15.63
2023-04-26T07:04:41.934Z,13.70
2023-04-26T07:07:31.625Z,20.00
2023-04-26T07:10:21.306Z,15.82
2023-04-26T07:13:11.086Z,14.70
2023-04-26T07:16:00.687Z,19.88
2023-04-26T07:18:50.164Z,17.98
2023-04-26T07:21:40.878Z,15.52
2023-04-26T07:24:30.233Z,15.63
2023-04-26T07:27:19.724Z,25.73
2023-04-26T07:30:11.364Z,14.90
2023-04-26T07:33:01.051Z,16.95
2023-04-26T07:35:56.923Z,13.90
2023-04-26T07:38:47.737Z,22.58
2023-04-26T07:41:36.970Z,20.33
2023-04-26T07:44:26.275Z,19.13
2023-04-26T07:47:15.894Z,16.02
2023-04-26T07:50:06.000Z,14.52
2023-04-26T07:52:55.220Z,18.42
2023-04-26T07:55:46.331Z,15.40
2023-04-26T07:58:36.285Z,17.75
2023-04-26T08:01:26.237Z,15.20
2023-04-26T08:04:15.778Z,13.20
2023-04-26T08:07:05.240Z,15.65
2023-04-26T08:09:54.633Z,12.07
2023-04-26T08:12:45.360Z,13.23
2023-04-26T08:15:34.862Z,15.57
2023-04-26T08:18:24.134Z,16.48
2023-04-26T08:21:13.528Z,18.45
2023-04-26T08:24:02.779Z,17.70
2023-04-26T08:26:52.114Z,15.80
2023-04-26T08:29:43.065Z,14.85
2023-04-26T08:32:34.191Z,14.07
2023-04-26T08:35:23.434Z,15.80
2023-04-26T08:38:12.739Z,15.15
2023-04-26T08:41:03.100Z,11.48
2023-04-26T08:43:52.935Z,16.80
2023-04-26T08:46:57.206Z,18.38
2023-04-26T08:49:50.365Z,13.65
2023-04-26T08:55:31.104Z,16.83
2023-04-26T08:58:21.642Z,14.23
2023-04-26T09:01:11.609Z,18.50
2023-04-26T09:04:03.385Z,15.18
2023-04-26T09:06:54.686Z,14.90
2023-04-26T09:09:47.252Z,12.50
2023-04-26T09:12:36.827Z,16.05
2023-04-26T09:15:28.318Z,15.80
2023-04-26T09:18:22.989Z,13.18
2023-04-26T09:21:17.986Z,18.85
2023-04-26T09:24:08.021Z,16.13
2023-04-26T09:27:04.234Z,14.95
2023-04-26T09:30:04.593Z,16.17
2023-04-26T09:32:57.652Z,11.63
2023-04-26T09:35:46.945Z,12.40
2023-04-26T09:38:44.330Z,13.07
2023-04-26T09:41:46.476Z,15.43
2023-04-26T09:44:36.693Z,12.43
2023-04-26T09:47:25.938Z,11.77
2023-04-26T09:50:15.301Z,14.68
2023-04-26T09:53:04.615Z,14.23
2023-04-26T09:55:55.693Z,15.32
2023-04-26T09:58:59.387Z,16.73
2023-04-26T10:01:48.643Z,17.33
2023-04-26T10:04:38.664Z,11.88
2023-04-26T10:07:28.161Z,11.73
2023-04-26T10:10:19.060Z,11.05
2023-04-26T10:13:09.881Z,16.08
2023-04-26T10:15:59.367Z,14.00
2023-04-26T10:18:49.676Z,13.95
2023-04-26T10:21:41.594Z,11.02
2023-04-26T10:24:31.418Z,9.43
2023-04-26T10:27:50.223Z,12.60
2023-04-26T10:30:59.536Z,14.07
2023-04-26T10:34:21.550Z,14.20
2023-04-26T10:37:13.109Z,9.57
2023-04-26T10:40:27.479Z,13.32
2023-04-26T10:43:32.931Z,9.75
2023-04-26T10:46:38.783Z,11.63
2023-04-26T10:49:28.100Z,10.25
2023-04-26T10:52:20.334Z,11.57
2023-04-26T10:55:10.504Z,14.27
2023-04-26T10:57:59.942Z,14.13
2023-04-26T11:01:06.415Z,11.55
2023-04-26T11:04:12.436Z,12.25
2023-04-26T11:07:05.257Z,11.15
2023-04-26T11:09:54.805Z,11.90
2023-04-26T11:12:44.252Z,12.63
2023-04-26T11:15:34.314Z,9.98
2023-04-26T11:18:23.860Z,12.35
2023-04-26T11:21:15.491Z,10.18
2023-04-26T11:24:05.045Z,10.75
2023-04-26T11:26:54.514Z,10.32
2023-04-26T11:29:43.959Z,14.55
2023-04-26T11:32:34.503Z,12.48
2023-04-26T11:35:24.904Z,10.30
2023-04-26T11:38:16.210Z,8.02
2023-04-26T11:41:06.287Z,9.43
2023-04-26T11:43:55.664Z,9.20
2023-04-26T11:46:45.459Z,11.45
2023-04-26T11:49:37.010Z,9.35
2023-04-26T11:52:26.582Z,12.02
2023-04-26T11:55:17.265Z,10.93
2023-04-26T11:58:15.531Z,8.68
2023-04-26T12:01:04.780Z,12.18
2023-04-26T12:03:56.936Z,10.80
2023-04-26T12:06:48.105Z,12.63
2023-04-26T12:09:41.478Z,11.65
2023-04-26T12:12:32.308Z,6.45
2023-04-26T12:15:25.971Z,11.57
2023-04-26T12:18:15.704Z,9.45
2023-04-26T12:21:05.524Z,5.68
2023-04-26T12:23:54.922Z,9.32
2023-04-26T12:26:45.823Z,7.07
2023-04-26T12:29:36.879Z,8.38
2023-04-26T12:32:27.110Z,5.97
2023-04-26T12:35:16.913Z,7.70
2023-04-26T12:38:06.255Z,5.97
2023-04-26T12:40:55.957Z,8.98
2023-04-26T12:43:45.263Z,5.63
2023-04-26T12:46:36.480Z,9.63
2023-04-26T12:49:26.210Z,10.02
2023-04-26T12:52:15.561Z,9.38
2023-04-26T12:55:05.272Z,11.18
2023-04-26T12:57:54.554Z,7.47
2023-04-26T13:00:44.697Z,5.38
2023-04-26T13:03:36.378Z,7.95
2023-04-26T13:06:27.892Z,8.30
2023-04-26T13:09:17.691Z,5.70
2023-04-26T13:12:07.536Z,7.38
2023-04-26T13:14:56.982Z,6.72
2023-04-26T13:17:47.129Z,10.35
2023-04-26T13:20:38.316Z,8.57
2023-04-26T13:23:27.812Z,7.70
2023-04-26T13:26:18.465Z,7.28
2023-04-26T13:29:08.104Z,7.20
2023-04-26T13:31:58.831Z,8.50
2023-04-26T13:34:48.146Z,10.05
2023-04-26T13:37:39.039Z,9.75
2023-04-26T13:40:28.425Z,5.75
2023-04-26T13:43:17.692Z,8.80
2023-04-26T13:46:06.968Z,8.77
2023-04-26T13:48:56.908Z,7.63
2023-04-26T13:51:46.237Z,6.63
2023-04-26T13:54:37.248Z,6.80
2023-04-26T13:57:26.549Z,5.93
2023-04-26T14:00:18.028Z,6.38
2023-04-26T14:03:09.702Z,7.97
2023-04-26T14:05:58.970Z,7.47
2023-04-26T14:08:48.177Z,5.82
2023-04-26T14:11:38.891Z,8.75
2023-04-26T14:14:28.266Z,8.65
2023-04-26T14:17:17.859Z,5.40
2023-04-26T14:20:10.553Z,9.25
2023-04-26T14:23:00.022Z,6.60
2023-04-26T14:25:53.631Z,7.10
2023-04-26T14:28:45.082Z,8.15
2023-04-26T14:31:34.470Z,6.22
2023-04-26T14:34:23.946Z,8.27
2023-04-26T14:37:13.214Z,6.47
2023-04-26T14:40:02.456Z,8.50
2023-04-26T14:42:52.213Z,6.97
2023-04-26T14:45:45.862Z,6.13
2023-04-26T14:48:35.194Z,9.82
2023-04-26T14:51:24.491Z,6.93
2023-04-26T14:54:13.958Z,6.05
2023-04-26T14:57:03.200Z,5.90
2023-04-26T14:59:52.587Z,7.35
2023-04-26T15:02:43.397Z,7.30
2023-04-26T15:05:33.771Z,6.28
2023-04-26T15:08:23.001Z,6.85
2023-04-26T15:11:12.276Z,5.32
2023-04-26T15:14:01.604Z,6.88
2023-04-26T15:16:50.872Z,6.82
2023-04-26T15:19:41.744Z,6.13
2023-04-26T15:22:31.447Z,6.38
2023-04-26T15:25:21.271Z,8.55
2023-04-26T15:28:10.583Z,6.88
2023-04-26T15:31:04.184Z,7.38
2023-04-26T15:33:56.531Z,6.90
2023-04-26T15:36:47.583Z,7.28
2023-04-26T15:39:37.002Z,6.93
2023-04-26T15:42:26.425Z,7.03
2023-04-26T15:45:15.819Z,6.40
2023-04-26T15:48:05.917Z,5.65
2023-04-26T15:50:56.933Z,7.32
2023-04-26T15:53:47.956Z,6.35
2023-04-26T15:56:37.550Z,9.02
2023-04-26T15:59:26.892Z,9.55
2023-04-26T16:02:16.269Z,6.18
2023-04-26T16:05:08.373Z,7.97
2023-04-26T16:07:57.833Z,7.25
2023-04-26T16:10:48.486Z,8.82
2023-04-26T16:13:37.925Z,5.07
2023-04-26T16:16:27.250Z,10.15
2023-04-26T16:19:17.512Z,7.47
2023-04-26T16:22:06.773Z,7.13
2023-04-26T16:24:56.129Z,9.20
2023-04-26T16:27:46.866Z,6.03
2023-04-26T16:30:36.963Z,8.00
2023-04-26T16:33:26.832Z,8.30
2023-04-26T16:36:16.504Z,8.05
2023-04-26T16:39:06.084Z,7.63
2023-04-26T16:41:55.990Z,7.15
2023-04-26T16:44:46.722Z,7.00
2023-04-26T16:47:36.513Z,8.38
2023-04-26T16:50:26.028Z,7.28
2023-04-26T16:53:16.029Z,8.73
2023-04-26T16:56:06.440Z,5.75
2023-04-26T16:58:55.925Z,7.18
2023-04-26T17:01:47.378Z,7.57
2023-04-26T17:04:37.112Z,6.50
2023-04-26T17:07:27.232Z,7.18
2023-04-26T17:10:16.503Z,9.32
2023-04-26T17:13:09.013Z,9.20
2023-04-26T17:15:58.484Z,7.85
2023-04-26T17:18:49.251Z,8.85
2023-04-26T17:21:38.566Z,5.50
2023-04-26T17:24:27.743Z,9.68
2023-04-26T17:27:18.119Z,8.38
2023-04-26T17:30:09.272Z,6.60
2023-04-26T17:32:58.509Z,6.65
2023-04-26T17:35:49.364Z,9.82
2023-04-26T17:38:38.663Z,8.73
2023-04-26T17:41:28.043Z,7.75
2023-04-26T17:44:17.814Z,9.05
2023-04-26T17:47:07.249Z,6.97
2023-04-26T17:49:59.018Z,7.85
2023-04-26T17:52:49.712Z,11.45
2023-04-26T17:55:39.036Z,7.07
2023-04-26T17:58:28.275Z,8.70
2023-04-26T18:01:17.691Z,12.32
2023-04-26T18:04:07.496Z,7.97
2023-04-26T18:06:57.205Z,10.00
2023-04-26T18:09:47.894Z,7.20
2023-04-26T18:12:38.284Z,6.45
2023-04-26T18:15:27.883Z,8.00
2023-04-26T18:18:17.304Z,9.57
2023-04-26T18:21:06.953Z,6.97
2023-04-26T18:23:56.400Z,9.15
2023-04-26T18:26:47.084Z,7.20
2023-04-26T18:29:36.401Z,7.53
2023-04-26T18:32:25.905Z,8.90
2023-04-26T18:35:15.723Z,8.82
2023-04-26T18:38:05.309Z,7.10
2023-04-26T18:40:54.617Z,8.07
2023-04-26T18:43:45.445Z,10.02
2023-04-26T18:46:34.799Z,12.13
2023-04-26T18:49:24.315Z,9.02
2023-04-26T18:52:13.868Z,7.57
2023-04-26T18:55:03.284Z,9.50
2023-04-26T18:57:52.662Z,10.10
2023-04-26T19:00:43.413Z,9.88
2023-04-26T19:03:32.831Z,9.50
2023-04-26T19:06:22.370Z,10.32
2023-04-26T19:09:13.416Z,8.25
2023-04-26T19:12:02.843Z,10.38
2023-04-26T19:14:52.496Z,9.63
2023-04-26T19:17:43.185Z,8.75
2023-04-26T19:20:32.542Z,8.68
2023-04-26T19:23:22.095Z,8.93
2023-04-26T19:26:13.416Z,12.38
2023-04-26T19:29:04.134Z,8.30
2023-04-26T19:31:55.544Z,11.82
2023-04-26T19:34:46.388Z,12.93
2023-04-26T19:37:35.710Z,11.27
2023-04-26T19:40:25.139Z,9.05
2023-04-26T19:43:14.480Z,11.13
2023-04-26T19:46:11.606Z,12.38
2023-04-26T19:49:00.998Z,9.75
2023-04-26T19:51:51.769Z,10.85
2023-04-26T19:54:41.049Z,10.45
2023-04-26T19:57:30.277Z,14.20
2023-04-26T20:00:20.093Z,11.48
2023-04-26T20:03:09.436Z,12.55
2023-04-26T20:05:58.760Z,11.57
2023-04-26T20:08:49.379Z,10.75
2023-04-26T20:11:38.785Z,10.75
2023-04-26T20:14:30.414Z,11.63
2023-04-26T20:17:19.705Z,11.40
2023-04-26T20:20:10.583Z,12.32
2023-04-26T20:23:00.012Z,11.25
2023-04-26T20:25:51.703Z,10.10
2023-04-26T20:28:40.949Z,9.93
2023-04-26T20:31:30.294Z,10.05
2023-04-26T20:34:19.739Z,13.30
2023-04-26T20:37:09.149Z,11.23
2023-04-26T20:39:58.655Z,10.50
2023-04-26T20:42:49.420Z,12.07
2023-04-26T20:45:38.780Z,10.75
2023-04-26T20:48:28.046Z,12.40
2023-04-26T20:51:17.471Z,11.20
2023-04-26T20:54:06.806Z,11.85
2023-04-26T20:56:56.191Z,12.15
2023-04-26T20:59:46.897Z,12.68
2023-04-26T21:02:36.269Z,14.65
2023-04-26T21:05:25.812Z,16.70
2023-04-26T21:08:15.205Z,11.38
2023-04-26T21:11:04.489Z,11.15
2023-04-26T21:13:54.263Z,13.68
2023-04-26T21:16:45.166Z,10.65
2023-04-26T21:19:34.398Z,10.15
2023-04-26T21:22:23.694Z,13.25
2023-04-26T21:25:17.148Z,10.98
2023-04-26T21:28:06.524Z,9.73
2023-04-26T21:31:05.005Z,18.83
2023-04-26T21:33:55.895Z,12.70
2023-04-26T21:36:45.220Z,9.70
2023-04-26T21:39:34.412Z,12.68
2023-04-26T21:42:23.778Z,10.35
2023-04-26T21:45:14.116Z,9.00
2023-04-26T21:48:04.610Z,10.05
2023-04-26T21:50:55.284Z,12.35
2023-04-26T21:53:45.089Z,13.63
2023-04-26T21:56:34.530Z,15.20
2023-04-26T21:59:24.028Z,13.55
2023-04-26T22:02:13.385Z,11.27
2023-04-26T22:05:02.799Z,11.23
2023-04-26T22:07:53.508Z,10.00
2023-04-26T22:10:42.800Z,10.90
2023-04-26T22:13:33.210Z,10.30
2023-04-26T22:16:22.543Z,11.10
2023-04-26T22:19:12.198Z,9.60
2023-04-26T22:22:01.790Z,12.93
2023-04-26T22:24:52.525Z,10.23
2023-04-26T22:27:41.928Z,10.48
2023-04-26T22:30:31.382Z,11.18
2023-04-26T22:33:20.857Z,11.77
2023-04-26T22:36:11.166Z,12.00
2023-04-26T22:39:00.504Z,24.48
2023-04-26T22:41:51.226Z,11.80
2023-04-26T22:44:40.543Z,11.90
2023-04-26T22:47:30.431Z,11.50
2023-04-26T22:50:19.876Z,10.73
2023-04-26T22:53:09.225Z,13.00
2023-04-26T22:55:58.727Z,13.60
2023-04-26T22:58:49.848Z,11.38
2023-04-26T23:01:39.466Z,9.50
2023-04-26T23:04:28.808Z,11.88
2023-04-26T23:07:18.101Z,11.43
2023-04-26T23:10:08.790Z,11.93
2023-04-26T23:12:58.438Z,12.32
2023-04-26T23:15:49.146Z,10.70
2023-04-26T23:18:38.379Z,9.60
2023-04-26T23:21:28.256Z,11.68
2023-04-26T23:24:17.554Z,12.90
2023-04-26T23:27:06.851Z,9.70
2023-04-26T23:29:56.905Z,13.85
2023-04-26T23:32:47.607Z,13.27
2023-04-26T23:35:42.494Z,14.05
2023-04-26T23:38:31.760Z,9.20
2023-04-26T23:41:21.115Z,12.25
2023-04-26T23:44:10.363Z,9.88
2023-04-26T23:46:59.577Z,11.13
2023-04-26T23:49:50.589Z,10.45
2023-04-26T23:52:39.766Z,12.45
2023-04-26T23:55:29.334Z,11.63
2023-04-26T23:58:18.570Z,10.13
